sensor_id;sensor_type;location;lat;lon;timestamp;P1;P2;P0
74419;PMS5003;62855;50.718;-2.460;2023-07-28T00:00:06;5.45;4.89;
74419;PMS5003;62855;50.718;-2.460;2023-07-28T00:03:05;5.45;4.89;
74419;PMS5003;62855;50.718;-2.460;2023-07-28T00:06:05;3.63;3.91;
74419;PMS5003;62855;50.718;-2.460;2023-07-28T00:09:06;4.54;4.89;
74419;PMS5003;62855;50.718;-2.460;2023-07-28T00:12:06;4.54;4.89;
74419;PMS5003;62855;50.718;-2.460;2023-07-28T00:15:06;3.63;3.91;
74419;PMS5003;62855;50.718;-2.460;2023-07-28T00:18:06;4.54;4.89;
74419;PMS5003;62855;50.718;-2.460;2023-07-28T00:21:06;3.63;3.91;
74419;PMS5003;62855;50.718;-2.460;2023-07-28T00:24:05;3.63;3.91;
74419;PMS5003;62855;50.718;-2.460;2023-07-28T00:27:06;2.72;2.93;
74419;PMS5003;62855;50.718;-2.460;2023-07-28T00:30:06;2.72;2.93;
74419;PMS5003;62855;50.718;-2.460;2023-07-28T00:33:06;4.54;3.91;
74419;PMS5003;62855;50.718;-2.460;2023-07-28T00:36:06;4.54;3.91;
74419;PMS5003;62855;50.718;-2.460;2023-07-28T00:39:05;3.63;2.93;
74419;PMS5003;62855;50.718;-2.460;2023-07-28T00:42:06;5.45;3.91;
74419;PMS5003;62855;50.718;-2.460;2023-07-28T00:45:06;5.45;3.91;
74419;PMS5003;62855;50.718;-2.460;2023-07-28T00:48:07;5.45;4.89;
74419;PMS5003;62855;50.718;-2.460;2023-07-28T00:51:05;5.45;3.91;
74419;PMS5003;62855;50.718;-2.460;2023-07-28T00:54:06;6.35;4.89;
74419;PMS5003;62855;50.718;-2.460;2023-07-28T00:57:06;6.35;4.89;
74419;PMS5003;62855;50.718;-2.460;2023-07-28T01:00:06;6.35;5.87;
74419;PMS5003;62855;50.718;-2.460;2023-07-28T01:03:06;5.45;4.89;
74419;PMS5003;62855;50.718;-2.460;2023-07-28T01:06:10;7.26;6.84;
74419;PMS5003;62855;50.718;-2.460;2023-07-28T01:09:09;7.26;6.84;
74419;PMS5003;62855;50.718;-2.460;2023-07-28T01:12:07;5.45;5.87;
74419;PMS5003;62855;50.718;-2.460;2023-07-28T01:15:06;6.35;6.84;
74419;PMS5003;62855;50.718;-2.460;2023-07-28T01:18:06;7.26;5.87;
74419;PMS5003;62855;50.718;-2.460;2023-07-28T01:21:07;5.45;4.89;
74419;PMS5003;62855;50.718;-2.460;2023-07-28T01:24:09;6.35;5.87;
74419;PMS5003;62855;50.718;-2.460;2023-07-28T01:27:06;6.35;5.87;
74419;PMS5003;62855;50.718;-2.460;2023-07-28T01:30:06;7.26;6.84;
74419;PMS5003;62855;50.718;-2.460;2023-07-28T01:33:06;6.35;4.89;
74419;PMS5003;62855;50.718;-2.460;2023-07-28T01:36:05;6.35;5.87;
74419;PMS5003;62855;50.718;-2.460;2023-07-28T01:39:06;5.45;3.91;
74419;PMS5003;62855;50.718;-2.460;2023-07-28T01:42:06;6.35;4.89;
74419;PMS5003;62855;50.718;-2.460;2023-07-28T01:45:06;6.35;5.87;
74419;PMS5003;62855;50.718;-2.460;2023-07-28T01:48:05;5.45;4.89;
74419;PMS5003;62855;50.718;-2.460;2023-07-28T01:51:05;5.45;4.89;
74419;PMS5003;62855;50.718;-2.460;2023-07-28T01:54:06;5.45;4.89;
74419;PMS5003;62855;50.718;-2.460;2023-07-28T01:57:05;3.63;3.91;
74419;PMS5003;62855;50.718;-2.460;2023-07-28T02:00:06;3.63;3.91;
74419;PMS5003;62855;50.718;-2.460;2023-07-28T02:03:06;3.63;3.91;
74419;PMS5003;62855;50.718;-2.460;2023-07-28T02:06:06;4.54;4.89;
74419;PMS5003;62855;50.718;-2.460;2023-07-28T02:09:06;3.63;3.91;
74419;PMS5003;62855;50.718;-2.460;2023-07-28T02:12:06;4.54;4.89;
74419;PMS5003;62855;50.718;-2.460;2023-07-28T02:15:07;5.45;4.89;
74419;PMS5003;62855;50.718;-2.460;2023-07-28T02:18:05;5.45;4.89;
74419;PMS5003;62855;50.718;-2.460;2023-07-28T02:21:07;5.45;4.89;
74419;PMS5003;62855;50.718;-2.460;2023-07-28T02:24:06;6.35;5.87;
74419;PMS5003;62855;50.718;-2.460;2023-07-28T02:27:06;6.35;5.87;
74419;PMS5003;62855;50.718;-2.460;2023-07-28T02:30:06;6.35;5.87;
74419;PMS5003;62855;50.718;-2.460;2023-07-28T02:33:06;7.26;5.87;
74419;PMS5003;62855;50.718;-2.460;2023-07-28T02:36:06;6.35;5.87;
74419;PMS5003;62855;50.718;-2.460;2023-07-28T02:39:06;6.35;4.89;
74419;PMS5003;62855;50.718;-2.460;2023-07-28T02:42:05;6.35;4.89;
74419;PMS5003;62855;50.718;-2.460;2023-07-28T02:45:06;3.63;2.93;
74419;PMS5003;62855;50.718;-2.460;2023-07-28T02:48:06;4.54;3.91;
74419;PMS5003;62855;50.718;-2.460;2023-07-28T02:51:05;5.45;3.91;
74419;PMS5003;62855;50.718;-2.460;2023-07-28T02:54:05;4.54;3.91;
74419;PMS5003;62855;50.718;-2.460;2023-07-28T02:57:05;5.45;3.91;
74419;PMS5003;62855;50.718;-2.460;2023-07-28T03:00:06;3.63;3.91;
74419;PMS5003;62855;50.718;-2.460;2023-07-28T03:03:06;2.72;2.93;
74419;PMS5003;62855;50.718;-2.460;2023-07-28T03:06:05;4.54;3.91;
74419;PMS5003;62855;50.718;-2.460;2023-07-28T03:09:06;4.54;3.91;
74419;PMS5003;62855;50.718;-2.460;2023-07-28T03:12:06;4.54;3.91;
74419;PMS5003;62855;50.718;-2.460;2023-07-28T03:15:06;4.54;4.89;
74419;PMS5003;62855;50.718;-2.460;2023-07-28T03:18:05;5.45;4.89;
74419;PMS5003;62855;50.718;-2.460;2023-07-28T03:21:07;4.54;4.89;
74419;PMS5003;62855;50.718;-2.460;2023-07-28T03:24:06;3.63;3.91;
74419;PMS5003;62855;50.718;-2.460;2023-07-28T03:27:06;3.63;3.91;
74419;PMS5003;62855;50.718;-2.460;2023-07-28T03:30:06;3.63;3.91;
74419;PMS5003;62855;50.718;-2.460;2023-07-28T03:33:06;2.72;2.93;
74419;PMS5003;62855;50.718;-2.460;2023-07-28T03:36:06;3.63;3.91;
74419;PMS5003;62855;50.718;-2.460;2023-07-28T03:39:06;2.72;2.93;
74419;PMS5003;62855;50.718;-2.460;2023-07-28T03:42:06;2.72;2.93;
74419;PMS5003;62855;50.718;-2.460;2023-07-28T03:45:06;3.63;2.93;
74419;PMS5003;62855;50.718;-2.460;2023-07-28T03:48:06;2.72;1.96;
74419;PMS5003;62855;50.718;-2.460;2023-07-28T03:51:06;3.63;2.93;
74419;PMS5003;62855;50.718;-2.460;2023-07-28T03:54:05;3.63;2.93;
74419;PMS5003;62855;50.718;-2.460;2023-07-28T03:57:06;2.72;2.93;
74419;PMS5003;62855;50.718;-2.460;2023-07-28T04:00:06;4.54;3.91;
74419;PMS5003;62855;50.718;-2.460;2023-07-28T04:03:05;5.45;4.89;
74419;PMS5003;62855;50.718;-2.460;2023-07-28T04:06:09;5.45;3.91;
74419;PMS5003;62855;50.718;-2.460;2023-07-28T04:09:06;6.35;3.91;
74419;PMS5003;62855;50.718;-2.460;2023-07-28T04:12:06;6.35;3.91;
74419;PMS5003;62855;50.718;-2.460;2023-07-28T04:15:06;7.26;5.87;
74419;PMS5003;62855;50.718;-2.460;2023-07-28T04:18:05;8.17;6.84;
74419;PMS5003;62855;50.718;-2.460;2023-07-28T04:21:05;8.17;6.84;
74419;PMS5003;62855;50.718;-2.460;2023-07-28T04:24:06;7.26;5.87;
74419;PMS5003;62855;50.718;-2.460;2023-07-28T04:27:06;8.17;5.87;
74419;PMS5003;62855;50.718;-2.460;2023-07-28T04:30:06;8.17;6.84;
74419;PMS5003;62855;50.718;-2.460;2023-07-28T04:33:06;7.26;5.87;
74419;PMS5003;62855;50.718;-2.460;2023-07-28T04:36:06;6.35;4.89;
74419;PMS5003;62855;50.718;-2.460;2023-07-28T04:39:06;6.35;5.87;
74419;PMS5003;62855;50.718;-2.460;2023-07-28T04:42:06;5.45;5.87;
74419;PMS5003;62855;50.718;-2.460;2023-07-28T04:45:07;5.45;4.89;
74419;PMS5003;62855;50.718;-2.460;2023-07-28T04:48:05;4.54;3.91;
74419;PMS5003;62855;50.718;-2.460;2023-07-28T04:51:05;3.63;3.91;
74419;PMS5003;62855;50.718;-2.460;2023-07-28T04:54:06;3.63;2.93;
74419;PMS5003;62855;50.718;-2.460;2023-07-28T04:57:06;4.54;3.91;
74419;PMS5003;62855;50.718;-2.460;2023-07-28T05:00:06;4.54;3.91;
74419;PMS5003;62855;50.718;-2.460;2023-07-28T05:03:06;5.45;3.91;
74419;PMS5003;62855;50.718;-2.460;2023-07-28T05:06:06;7.26;5.87;
74419;PMS5003;62855;50.718;-2.460;2023-07-28T05:09:06;11.80;7.82;
74419;PMS5003;62855;50.718;-2.460;2023-07-28T05:12:06;14.52;7.82;
74419;PMS5003;62855;50.718;-2.460;2023-07-28T05:15:06;15.43;8.80;
74419;PMS5003;62855;50.718;-2.460;2023-07-28T05:18:06;12.71;6.84;
74419;PMS5003;62855;50.718;-2.460;2023-07-28T05:21:06;10.89;5.87;
74419;PMS5003;62855;50.718;-2.460;2023-07-28T05:24:06;9.98;6.84;
74419;PMS5003;62855;50.718;-2.460;2023-07-28T05:27:05;10.89;6.84;
74419;PMS5003;62855;50.718;-2.460;2023-07-28T05:30:06;9.08;6.84;
74419;PMS5003;62855;50.718;-2.460;2023-07-28T05:33:06;9.08;6.84;
74419;PMS5003;62855;50.718;-2.460;2023-07-28T05:36:06;8.17;6.84;
74419;PMS5003;62855;50.718;-2.460;2023-07-28T05:39:06;7.26;6.84;
74419;PMS5003;62855;50.718;-2.460;2023-07-28T05:42:05;6.35;6.84;
74419;PMS5003;62855;50.718;-2.460;2023-07-28T05:45:07;6.35;6.84;
74419;PMS5003;62855;50.718;-2.460;2023-07-28T05:48:05;6.35;6.84;
74419;PMS5003;62855;50.718;-2.460;2023-07-28T05:51:06;6.35;6.84;
74419;PMS5003;62855;50.718;-2.460;2023-07-28T05:54:06;6.35;6.84;
74419;PMS5003;62855;50.718;-2.460;2023-07-28T05:57:06;5.45;5.87;
74419;PMS5003;62855;50.718;-2.460;2023-07-28T06:00:07;5.45;5.87;
74419;PMS5003;62855;50.718;-2.460;2023-07-28T06:03:05;4.54;4.89;
74419;PMS5003;62855;50.718;-2.460;2023-07-28T06:06:05;5.45;4.89;
74419;PMS5003;62855;50.718;-2.460;2023-07-28T06:09:05;4.54;4.89;
74419;PMS5003;62855;50.718;-2.460;2023-07-28T06:12:06;4.54;4.89;
74419;PMS5003;62855;50.718;-2.460;2023-07-28T06:15:06;3.63;3.91;
74419;PMS5003;62855;50.718;-2.460;2023-07-28T06:18:05;4.54;4.89;
74419;PMS5003;62855;50.718;-2.460;2023-07-28T06:21:06;4.54;4.89;
74419;PMS5003;62855;50.718;-2.460;2023-07-28T06:24:06;2.72;2.93;
74419;PMS5003;62855;50.718;-2.460;2023-07-28T06:27:06;4.54;3.91;
74419;PMS5003;62855;50.718;-2.460;2023-07-28T06:30:07;3.63;3.91;
74419;PMS5003;62855;50.718;-2.460;2023-07-28T06:33:06;4.54;3.91;
74419;PMS5003;62855;50.718;-2.460;2023-07-28T06:36:06;3.63;3.91;
74419;PMS5003;62855;50.718;-2.460;2023-07-28T06:39:06;5.45;4.89;
74419;PMS5003;62855;50.718;-2.460;2023-07-28T06:42:05;5.45;4.89;
74419;PMS5003;62855;50.718;-2.460;2023-07-28T06:45:06;7.26;4.89;
74419;PMS5003;62855;50.718;-2.460;2023-07-28T06:48:06;7.26;5.87;
74419;PMS5003;62855;50.718;-2.460;2023-07-28T06:51:06;7.26;5.87;
74419;PMS5003;62855;50.718;-2.460;2023-07-28T06:54:06;8.17;5.87;
74419;PMS5003;62855;50.718;-2.460;2023-07-28T06:57:05;11.80;5.87;
74419;PMS5003;62855;50.718;-2.460;2023-07-28T07:00:06;10.89;5.87;
74419;PMS5003;62855;50.718;-2.460;2023-07-28T07:03:06;11.80;6.84;
74419;PMS5003;62855;50.718;-2.460;2023-07-28T07:06:06;12.71;6.84;
74419;PMS5003;62855;50.718;-2.460;2023-07-28T07:09:05;11.80;5.87;
74419;PMS5003;62855;50.718;-2.460;2023-07-28T07:12:06;10.89;5.87;
74419;PMS5003;62855;50.718;-2.460;2023-07-28T07:15:06;10.89;4.89;
74419;PMS5003;62855;50.718;-2.460;2023-07-28T07:18:06;10.89;5.87;
74419;PMS5003;62855;50.718;-2.460;2023-07-28T07:21:06;9.98;4.89;
74419;PMS5003;62855;50.718;-2.460;2023-07-28T07:24:06;9.98;5.87;
74419;PMS5003;62855;50.718;-2.460;2023-07-28T07:27:06;6.35;4.89;
74419;PMS5003;62855;50.718;-2.460;2023-07-28T07:30:06;5.45;3.91;
74419;PMS5003;62855;50.718;-2.460;2023-07-28T07:33:06;6.35;4.89;
74419;PMS5003;62855;50.718;-2.460;2023-07-28T07:36:05;6.35;4.89;
74419;PMS5003;62855;50.718;-2.460;2023-07-28T07:39:06;4.54;2.93;
74419;PMS5003;62855;50.718;-2.460;2023-07-28T07:42:06;5.45;3.91;
74419;PMS5003;62855;50.718;-2.460;2023-07-28T07:45:06;4.54;3.91;
74419;PMS5003;62855;50.718;-2.460;2023-07-28T07:48:05;4.54;3.91;
74419;PMS5003;62855;50.718;-2.460;2023-07-28T07:51:06;5.45;3.91;
74419;PMS5003;62855;50.718;-2.460;2023-07-28T07:54:06;3.63;2.93;
74419;PMS5003;62855;50.718;-2.460;2023-07-28T07:57:05;4.54;3.91;
74419;PMS5003;62855;50.718;-2.460;2023-07-28T08:00:06;3.63;2.93;
74419;PMS5003;62855;50.718;-2.460;2023-07-28T08:03:06;3.63;2.93;
74419;PMS5003;62855;50.718;-2.460;2023-07-28T08:06:05;4.54;3.91;
74419;PMS5003;62855;50.718;-2.460;2023-07-28T08:09:06;6.35;4.89;
74419;PMS5003;62855;50.718;-2.460;2023-07-28T08:12:06;4.54;3.91;
74419;PMS5003;62855;50.718;-2.460;2023-07-28T08:15:06;4.54;3.91;
74419;PMS5003;62855;50.718;-2.460;2023-07-28T08:18:06;5.45;5.87;
74419;PMS5003;62855;50.718;-2.460;2023-07-28T08:21:06;4.54;4.89;
74419;PMS5003;62855;50.718;-2.460;2023-07-28T08:24:06;6.35;6.84;
74419;PMS5003;62855;50.718;-2.460;2023-07-28T08:27:06;6.35;5.87;
74419;PMS5003;62855;50.718;-2.460;2023-07-28T08:30:06;7.26;6.84;
74419;PMS5003;62855;50.718;-2.460;2023-07-28T08:33:06;8.17;7.82;
74419;PMS5003;62855;50.718;-2.460;2023-07-28T08:36:06;6.35;6.84;
74419;PMS5003;62855;50.718;-2.460;2023-07-28T08:39:06;7.26;6.84;
74419;PMS5003;62855;50.718;-2.460;2023-07-28T08:42:06;9.08;8.80;
74419;PMS5003;62855;50.718;-2.460;2023-07-28T08:45:07;9.08;8.80;
74419;PMS5003;62855;50.718;-2.460;2023-07-28T08:48:05;7.26;6.84;
74419;PMS5003;62855;50.718;-2.460;2023-07-28T08:51:06;7.26;6.84;
74419;PMS5003;62855;50.718;-2.460;2023-07-28T08:54:06;7.26;6.84;
74419;PMS5003;62855;50.718;-2.460;2023-07-28T08:57:06;7.26;6.84;
74419;PMS5003;62855;50.718;-2.460;2023-07-28T09:00:06;7.26;6.84;
74419;PMS5003;62855;50.718;-2.460;2023-07-28T09:03:06;5.45;4.89;
74419;PMS5003;62855;50.718;-2.460;2023-07-28T09:06:06;5.45;4.89;
74419;PMS5003;62855;50.718;-2.460;2023-07-28T09:09:06;5.45;4.89;
74419;PMS5003;62855;50.718;-2.460;2023-07-28T09:12:06;5.45;4.89;
74419;PMS5003;62855;50.718;-2.460;2023-07-28T09:15:06;4.54;3.91;
74419;PMS5003;62855;50.718;-2.460;2023-07-28T09:18:07;5.45;4.89;
74419;PMS5003;62855;50.718;-2.460;2023-07-28T09:21:06;3.63;2.93;
74419;PMS5003;62855;50.718;-2.460;2023-07-28T09:24:06;3.63;2.93;
74419;PMS5003;62855;50.718;-2.460;2023-07-28T09:27:06;4.54;2.93;
74419;PMS5003;62855;50.718;-2.460;2023-07-28T09:30:06;5.45;3.91;
74419;PMS5003;62855;50.718;-2.460;2023-07-28T09:33:06;5.45;3.91;
74419;PMS5003;62855;50.718;-2.460;2023-07-28T09:36:07;5.45;3.91;
74419;PMS5003;62855;50.718;-2.460;2023-07-28T09:39:06;4.54;2.93;
74419;PMS5003;62855;50.718;-2.460;2023-07-28T09:42:06;3.63;2.93;
74419;PMS5003;62855;50.718;-2.460;2023-07-28T09:45:06;3.63;2.93;
74419;PMS5003;62855;50.718;-2.460;2023-07-28T09:48:06;4.54;2.93;
74419;PMS5003;62855;50.718;-2.460;2023-07-28T09:51:06;5.45;3.91;
74419;PMS5003;62855;50.718;-2.460;2023-07-28T09:54:07;5.45;3.91;
74419;PMS5003;62855;50.718;-2.460;2023-07-28T09:57:06;3.63;2.93;
74419;PMS5003;62855;50.718;-2.460;2023-07-28T10:00:06;5.45;4.89;
74419;PMS5003;62855;50.718;-2.460;2023-07-28T10:03:06;3.63;2.93;
74419;PMS5003;62855;50.718;-2.460;2023-07-28T10:06:05;3.63;2.93;
74419;PMS5003;62855;50.718;-2.460;2023-07-28T10:09:06;3.63;2.93;
74419;PMS5003;62855;50.718;-2.460;2023-07-28T10:12:06;5.45;3.91;
74419;PMS5003;62855;50.718;-2.460;2023-07-28T10:15:06;7.26;5.87;
74419;PMS5003;62855;50.718;-2.460;2023-07-28T10:18:06;5.45;4.89;
74419;PMS5003;62855;50.718;-2.460;2023-07-28T10:21:06;6.35;5.87;
74419;PMS5003;62855;50.718;-2.460;2023-07-28T10:24:06;6.35;5.87;
74419;PMS5003;62855;50.718;-2.460;2023-07-28T10:27:06;6.35;5.87;
74419;PMS5003;62855;50.718;-2.460;2023-07-28T10:30:09;7.26;5.87;
74419;PMS5003;62855;50.718;-2.460;2023-07-28T10:33:06;7.26;5.87;
74419;PMS5003;62855;50.718;-2.460;2023-07-28T10:36:11;7.26;5.87;
74419;PMS5003;62855;50.718;-2.460;2023-07-28T10:42:07;5.45;4.89;
74419;PMS5003;62855;50.718;-2.460;2023-07-28T10:45:06;7.26;4.89;
74419;PMS5003;62855;50.718;-2.460;2023-07-28T10:48:05;7.26;4.89;
74419;PMS5003;62855;50.718;-2.460;2023-07-28T10:51:06;8.17;4.89;
74419;PMS5003;62855;50.718;-2.460;2023-07-28T10:54:06;9.08;5.87;
74419;PMS5003;62855;50.718;-2.460;2023-07-28T10:57:06;8.17;4.89;
74419;PMS5003;62855;50.718;-2.460;2023-07-28T11:00:06;7.26;4.89;
74419;PMS5003;62855;50.718;-2.460;2023-07-28T11:03:08;8.17;4.89;
74419;PMS5003;62855;50.718;-2.460;2023-07-28T11:06:06;8.17;4.89;
74419;PMS5003;62855;50.718;-2.460;2023-07-28T11:09:06;8.17;4.89;
74419;PMS5003;62855;50.718;-2.460;2023-07-28T11:12:08;7.26;4.89;
74419;PMS5003;62855;50.718;-2.460;2023-07-28T11:15:07;5.45;5.87;
74419;PMS5003;62855;50.718;-2.460;2023-07-28T11:18:06;5.45;4.89;
74419;PMS5003;62855;50.718;-2.460;2023-07-28T11:21:06;6.35;5.87;
74419;PMS5003;62855;50.718;-2.460;2023-07-28T11:24:06;6.35;5.87;
74419;PMS5003;62855;50.718;-2.460;2023-07-28T11:27:06;6.35;5.87;
74419;PMS5003;62855;50.718;-2.460;2023-07-28T11:30:07;6.35;5.87;
74419;PMS5003;62855;50.718;-2.460;2023-07-28T11:33:07;7.26;5.87;
74419;PMS5003;62855;50.718;-2.460;2023-07-28T11:36:05;6.35;5.87;
74419;PMS5003;62855;50.718;-2.460;2023-07-28T11:39:05;7.26;4.89;
74419;PMS5003;62855;50.718;-2.460;2023-07-28T11:42:06;7.26;5.87;
74419;PMS5003;62855;50.718;-2.460;2023-07-28T11:45:06;7.26;4.89;
74419;PMS5003;62855;50.718;-2.460;2023-07-28T11:48:06;8.17;4.89;
74419;PMS5003;62855;50.718;-2.460;2023-07-28T11:51:05;7.26;3.91;
74419;PMS5003;62855;50.718;-2.460;2023-07-28T11:54:06;6.35;3.91;
74419;PMS5003;62855;50.718;-2.460;2023-07-28T11:57:05;7.26;3.91;
74419;PMS5003;62855;50.718;-2.460;2023-07-28T12:00:06;6.35;4.89;
74419;PMS5003;62855;50.718;-2.460;2023-07-28T12:03:06;5.45;3.91;
74419;PMS5003;62855;50.718;-2.460;2023-07-28T12:06:05;6.35;4.89;
74419;PMS5003;62855;50.718;-2.460;2023-07-28T12:09:06;6.35;4.89;
74419;PMS5003;62855;50.718;-2.460;2023-07-28T12:12:06;5.45;4.89;
74419;PMS5003;62855;50.718;-2.460;2023-07-28T12:18:07;5.45;5.87;
74419;PMS5003;62855;50.718;-2.460;2023-07-28T12:21:06;5.45;5.87;
74419;PMS5003;62855;50.718;-2.460;2023-07-28T12:24:05;5.45;5.87;
74419;PMS5003;62855;50.718;-2.460;2023-07-28T12:27:09;5.45;5.87;
74419;PMS5003;62855;50.718;-2.460;2023-07-28T12:30:06;5.45;5.87;
74419;PMS5003;62855;50.718;-2.460;2023-07-28T12:33:06;5.45;5.87;
74419;PMS5003;62855;50.718;-2.460;2023-07-28T12:36:05;5.45;4.89;
74419;PMS5003;62855;50.718;-2.460;2023-07-28T12:39:05;5.45;4.89;
74419;PMS5003;62855;50.718;-2.460;2023-07-28T12:42:06;5.45;4.89;
74419;PMS5003;62855;50.718;-2.460;2023-07-28T12:45:06;5.45;4.89;
74419;PMS5003;62855;50.718;-2.460;2023-07-28T12:48:06;4.54;3.91;
74419;PMS5003;62855;50.718;-2.460;2023-07-28T12:51:06;5.45;4.89;
74419;PMS5003;62855;50.718;-2.460;2023-07-28T12:54:06;4.54;3.91;
74419;PMS5003;62855;50.718;-2.460;2023-07-28T12:57:06;4.54;3.91;
74419;PMS5003;62855;50.718;-2.460;2023-07-28T13:00:06;6.35;5.87;
74419;PMS5003;62855;50.718;-2.460;2023-07-28T13:03:06;4.54;3.91;
74419;PMS5003;62855;50.718;-2.460;2023-07-28T13:06:06;5.45;4.89;
74419;PMS5003;62855;50.718;-2.460;2023-07-28T13:09:06;5.45;4.89;
74419;PMS5003;62855;50.718;-2.460;2023-07-28T13:12:06;5.45;4.89;
74419;PMS5003;62855;50.718;-2.460;2023-07-28T13:15:06;6.35;5.87;
74419;PMS5003;62855;50.718;-2.460;2023-07-28T13:18:06;7.26;6.84;
74419;PMS5003;62855;50.718;-2.460;2023-07-28T13:21:06;7.26;6.84;
74419;PMS5003;62855;50.718;-2.460;2023-07-28T13:24:06;6.35;5.87;
74419;PMS5003;62855;50.718;-2.460;2023-07-28T13:27:06;6.35;5.87;
74419;PMS5003;62855;50.718;-2.460;2023-07-28T13:30:06;6.35;5.87;
74419;PMS5003;62855;50.718;-2.460;2023-07-28T13:33:06;7.26;6.84;
74419;PMS5003;62855;50.718;-2.460;2023-07-28T13:36:06;7.26;6.84;
74419;PMS5003;62855;50.718;-2.460;2023-07-28T13:39:06;7.26;6.84;
74419;PMS5003;62855;50.718;-2.460;2023-07-28T13:42:06;6.35;5.87;
74419;PMS5003;62855;50.718;-2.460;2023-07-28T13:45:07;7.26;6.84;
74419;PMS5003;62855;50.718;-2.460;2023-07-28T13:48:06;9.08;6.84;
74419;PMS5003;62855;50.718;-2.460;2023-07-28T13:51:06;11.80;6.84;
74419;PMS5003;62855;50.718;-2.460;2023-07-28T13:54:06;14.52;8.80;
74419;PMS5003;62855;50.718;-2.460;2023-07-28T13:57:06;15.43;8.80;
74419;PMS5003;62855;50.718;-2.460;2023-07-28T14:00:06;15.43;9.78;
74419;PMS5003;62855;50.718;-2.460;2023-07-28T14:03:06;14.52;8.80;
74419;PMS5003;62855;50.718;-2.460;2023-07-28T14:06:06;12.71;8.80;
74419;PMS5003;62855;50.718;-2.460;2023-07-28T14:09:05;11.80;7.82;
74419;PMS5003;62855;50.718;-2.460;2023-07-28T14:12:06;9.98;6.84;
74419;PMS5003;62855;50.718;-2.460;2023-07-28T14:15:06;9.08;5.87;
74419;PMS5003;62855;50.718;-2.460;2023-07-28T14:18:06;9.08;6.84;
74419;PMS5003;62855;50.718;-2.460;2023-07-28T14:21:05;9.98;5.87;
74419;PMS5003;62855;50.718;-2.460;2023-07-28T14:24:05;9.08;5.87;
74419;PMS5003;62855;50.718;-2.460;2023-07-28T14:27:05;7.26;4.89;
74419;PMS5003;62855;50.718;-2.460;2023-07-28T14:30:06;7.26;4.89;
74419;PMS5003;62855;50.718;-2.460;2023-07-28T14:33:06;7.26;4.89;
74419;PMS5003;62855;50.718;-2.460;2023-07-28T14:36:06;7.26;4.89;
74419;PMS5003;62855;50.718;-2.460;2023-07-28T14:39:06;7.26;4.89;
74419;PMS5003;62855;50.718;-2.460;2023-07-28T14:42:06;7.26;4.89;
74419;PMS5003;62855;50.718;-2.460;2023-07-28T14:45:06;7.26;4.89;
74419;PMS5003;62855;50.718;-2.460;2023-07-28T14:48:06;6.35;3.91;
74419;PMS5003;62855;50.718;-2.460;2023-07-28T14:51:06;2.72;2.93;
74419;PMS5003;62855;50.718;-2.460;2023-07-28T14:54:06;3.63;3.91;
74419;PMS5003;62855;50.718;-2.460;2023-07-28T14:57:06;4.54;4.89;
74419;PMS5003;62855;50.718;-2.460;2023-07-28T15:00:06;5.45;4.89;
74419;PMS5003;62855;50.718;-2.460;2023-07-28T15:03:06;5.45;4.89;
74419;PMS5003;62855;50.718;-2.460;2023-07-28T15:06:05;4.54;3.91;
74419;PMS5003;62855;50.718;-2.460;2023-07-28T15:09:05;5.45;4.89;
74419;PMS5003;62855;50.718;-2.460;2023-07-28T15:12:06;5.45;4.89;
74419;PMS5003;62855;50.718;-2.460;2023-07-28T15:15:06;3.63;2.93;
74419;PMS5003;62855;50.718;-2.460;2023-07-28T15:18:05;5.45;3.91;
74419;PMS5003;62855;50.718;-2.460;2023-07-28T15:21:05;6.35;4.89;
74419;PMS5003;62855;50.718;-2.460;2023-07-28T15:24:06;6.35;4.89;
74419;PMS5003;62855;50.718;-2.460;2023-07-28T15:27:06;5.45;3.91;
74419;PMS5003;62855;50.718;-2.460;2023-07-28T15:30:06;5.45;4.89;
74419;PMS5003;62855;50.718;-2.460;2023-07-28T15:33:06;4.54;3.91;
74419;PMS5003;62855;50.718;-2.460;2023-07-28T15:36:06;4.54;3.91;
74419;PMS5003;62855;50.718;-2.460;2023-07-28T15:39:06;6.35;5.87;
74419;PMS5003;62855;50.718;-2.460;2023-07-28T15:42:06;6.35;5.87;
74419;PMS5003;62855;50.718;-2.460;2023-07-28T15:45:07;5.45;4.89;
74419;PMS5003;62855;50.718;-2.460;2023-07-28T15:48:05;4.54;4.89;
74419;PMS5003;62855;50.718;-2.460;2023-07-28T15:51:05;5.45;5.87;
74419;PMS5003;62855;50.718;-2.460;2023-07-28T15:54:05;4.54;3.91;
74419;PMS5003;62855;50.718;-2.460;2023-07-28T15:57:05;4.54;4.89;
74419;PMS5003;62855;50.718;-2.460;2023-07-28T16:00:06;4.54;3.91;
74419;PMS5003;62855;50.718;-2.460;2023-07-28T16:03:06;4.54;3.91;
74419;PMS5003;62855;50.718;-2.460;2023-07-28T16:06:06;4.54;3.91;
74419;PMS5003;62855;50.718;-2.460;2023-07-28T16:09:06;2.72;2.93;
74419;PMS5003;62855;50.718;-2.460;2023-07-28T16:12:06;3.63;3.91;
74419;PMS5003;62855;50.718;-2.460;2023-07-28T16:15:06;3.63;3.91;
74419;PMS5003;62855;50.718;-2.460;2023-07-28T16:18:06;5.45;3.91;
74419;PMS5003;62855;50.718;-2.460;2023-07-28T16:21:06;5.45;2.93;
74419;PMS5003;62855;50.718;-2.460;2023-07-28T16:24:06;5.45;2.93;
74419;PMS5003;62855;50.718;-2.460;2023-07-28T16:27:06;5.45;2.93;
74419;PMS5003;62855;50.718;-2.460;2023-07-28T16:30:06;5.45;3.91;
74419;PMS5003;62855;50.718;-2.460;2023-07-28T16:33:06;5.45;2.93;
74419;PMS5003;62855;50.718;-2.460;2023-07-28T16:36:05;6.35;4.89;
74419;PMS5003;62855;50.718;-2.460;2023-07-28T16:39:05;6.35;4.89;
74419;PMS5003;62855;50.718;-2.460;2023-07-28T16:42:05;4.54;2.93;
74419;PMS5003;62855;50.718;-2.460;2023-07-28T16:45:06;4.54;2.93;
74419;PMS5003;62855;50.718;-2.460;2023-07-28T16:48:06;2.72;2.93;
74419;PMS5003;62855;50.718;-2.460;2023-07-28T16:51:06;2.72;2.93;
74419;PMS5003;62855;50.718;-2.460;2023-07-28T16:54:06;1.82;1.96;
74419;PMS5003;62855;50.718;-2.460;2023-07-28T16:57:06;1.82;1.96;
74419;PMS5003;62855;50.718;-2.460;2023-07-28T17:00:06;2.72;2.93;
74419;PMS5003;62855;50.718;-2.460;2023-07-28T17:03:06;1.82;1.96;
74419;PMS5003;62855;50.718;-2.460;2023-07-28T17:06:06;1.82;1.96;
74419;PMS5003;62855;50.718;-2.460;2023-07-28T17:09:06;1.82;1.96;
74419;PMS5003;62855;50.718;-2.460;2023-07-28T17:12:06;1.82;1.96;
74419;PMS5003;62855;50.718;-2.460;2023-07-28T17:15:06;2.72;2.93;
74419;PMS5003;62855;50.718;-2.460;2023-07-28T17:18:05;3.63;2.93;
74419;PMS5003;62855;50.718;-2.460;2023-07-28T17:21:06;4.54;2.93;
74419;PMS5003;62855;50.718;-2.460;2023-07-28T17:24:06;4.54;2.93;
74419;PMS5003;62855;50.718;-2.460;2023-07-28T17:27:06;6.35;3.91;
74419;PMS5003;62855;50.718;-2.460;2023-07-28T17:30:06;5.45;3.91;
74419;PMS5003;62855;50.718;-2.460;2023-07-28T17:33:06;5.45;2.93;
74419;PMS5003;62855;50.718;-2.460;2023-07-28T17:36:06;5.45;2.93;
74419;PMS5003;62855;50.718;-2.460;2023-07-28T17:39:06;5.45;2.93;
74419;PMS5003;62855;50.718;-2.460;2023-07-28T17:42:06;5.45;2.93;
74419;PMS5003;62855;50.718;-2.460;2023-07-28T17:45:06;5.45;2.93;
74419;PMS5003;62855;50.718;-2.460;2023-07-28T17:48:06;5.45;3.91;
74419;PMS5003;62855;50.718;-2.460;2023-07-28T17:51:06;3.63;2.93;
74419;PMS5003;62855;50.718;-2.460;2023-07-28T17:54:06;3.63;2.93;
74419;PMS5003;62855;50.718;-2.460;2023-07-28T17:57:06;3.63;3.91;
74419;PMS5003;62855;50.718;-2.460;2023-07-28T18:00:06;4.54;4.89;
74419;PMS5003;62855;50.718;-2.460;2023-07-28T18:03:06;4.54;4.89;
74419;PMS5003;62855;50.718;-2.460;2023-07-28T18:06:06;4.54;4.89;
74419;PMS5003;62855;50.718;-2.460;2023-07-28T18:09:06;4.54;4.89;
74419;PMS5003;62855;50.718;-2.460;2023-07-28T18:12:06;4.54;4.89;
74419;PMS5003;62855;50.718;-2.460;2023-07-28T18:15:06;5.45;5.87;
74419;PMS5003;62855;50.718;-2.460;2023-07-28T18:18:05;5.45;5.87;
74419;PMS5003;62855;50.718;-2.460;2023-07-28T18:21:05;5.45;4.89;
74419;PMS5003;62855;50.718;-2.460;2023-07-28T18:24:06;5.45;4.89;
74419;PMS5003;62855;50.718;-2.460;2023-07-28T18:27:06;4.54;4.89;